Time;durP1;ratioP1;P1;durP2;ratioP2;P2;SDS_P1;SDS_P2;PMS_P1;PMS_P2;Temp;Humidity;BMP_temperature;BMP_pressure;BME280_temperature;BME280_humidity;BME280_pressure;Samples;Min_cycle;Max_cycle;Signal;HPM_P1;HPM_P2
2023/03/15 00:00:05;;;;;;;2.20;1.67;;;;;;;9.82;41.30;96028.63;5113446;28;20027;-75
2023/03/15 00:02:30;;;;;;;3.95;2.38;;;;;;;9.80;41.36;96032.41;5101258;28;20031;-76
2023/03/15 00:04:56;;;;;;;4.82;2.08;;;;;;;9.76;41.71;96033.63;5147651;27;20376;-74
2023/03/15 00:07:24;;;;;;;3.55;2.08;;;;;;;9.78;41.66;96031.69;5113412;28;20060;-76
2023/03/15 00:09:51;;;;;;;7.25;3.22;;;;;;;9.72;41.95;96042.88;5104902;28;20472;-76
2023/03/15 00:12:17;;;;;;;4.85;2.30;;;;;;;9.67;41.63;96034.38;5096290;28;20406;-75
2023/03/15 00:14:43;;;;;;;8.70;2.95;;;;;;;9.71;41.57;96031.34;5112992;28;20023;-75
2023/03/15 00:17:08;;;;;;;2.22;1.38;;;;;;;9.72;41.27;96021.53;5131693;27;20027;-74
2023/03/15 00:19:34;;;;;;;4.32;2.00;;;;;;;9.71;41.13;96027.81;5168969;27;20035;-75
2023/03/15 00:22:00;;;;;;;4.20;1.98;;;;;;;9.71;41.32;96035.84;5134285;27;20038;-75
2023/03/15 00:24:25;;;;;;;5.78;2.60;;;;;;;9.67;41.47;96023.69;5116876;27;20050;-75
2023/03/15 00:26:51;;;;;;;3.20;1.77;;;;;;;9.70;41.16;96034.97;5116960;27;20084;-74
2023/03/15 00:29:17;;;;;;;2.58;1.45;;;;;;;9.72;40.96;96027.69;5134044;27;20030;-74
2023/03/15 00:31:43;;;;;;;2.72;2.13;;;;;;;9.68;41.17;96025.41;5117029;27;20039;-75
2023/03/15 00:34:08;;;;;;;4.75;2.25;;;;;;;9.65;41.15;96021.19;5135366;27;20493;-75
2023/03/15 00:36:34;;;;;;;3.00;1.60;;;;;;;9.60;41.04;96006.50;5116951;27;20080;-75
2023/03/15 00:38:59;;;;;;;1.45;1.10;;;;;;;9.53;41.13;96002.66;5125212;27;20574;-75
2023/03/15 00:41:25;;;;;;;9.57;2.00;;;;;;;9.55;40.82;96008.72;5117012;27;20039;-75
2023/03/15 00:43:51;;;;;;;3.28;1.88;;;;;;;9.53;40.71;96010.66;5135431;27;20035;-75
2023/03/15 00:46:17;;;;;;;3.80;1.95;;;;;;;9.52;41.03;95982.28;5116662;27;20375;-75
2023/03/15 00:48:45;;;;;;;3.45;1.70;;;;;;;9.40;40.97;95988.63;5121719;27;20057;-75
2023/03/15 00:51:14;;;;;;;5.80;2.20;;;;;;;9.30;41.37;95985.84;5126838;27;20083;-75
2023/03/15 00:53:42;;;;;;;6.30;2.10;;;;;;;9.23;41.51;95980.16;5134892;27;20023;-75
2023/03/15 00:56:19;;;;;;;3.83;1.98;;;;;;;9.19;41.44;95970.75;5116367;27;20026;-75
2023/03/15 00:58:45;;;;;;;3.22;1.67;;;;;;;9.16;41.39;95955.00;5099493;27;20031;-74
2023/03/15 01:01:16;;;;;;;6.57;1.92;;;;;;;9.19;41.54;95969.91;5125031;27;20027;-75
2023/03/15 01:03:42;;;;;;;8.02;1.67;;;;;;;9.13;41.50;95968.59;5120970;27;20061;-75
2023/03/15 01:06:10;;;;;;;4.65;2.13;;;;;;;9.14;41.71;95975.59;5150352;27;20459;-75
2023/03/15 01:08:36;;;;;;;3.47;1.70;;;;;;;9.10;41.87;95967.97;5133424;27;20492;-75
2023/03/15 01:11:07;;;;;;;3.30;1.95;;;;;;;9.08;41.67;95978.75;5126118;27;20039;-75
2023/03/15 01:13:33;;;;;;;3.85;1.65;;;;;;;9.12;41.68;95988.22;5133539;27;20426;-76
2023/03/15 01:15:58;;;;;;;3.05;1.73;;;;;;;9.06;41.65;95972.72;5101046;27;20132;-75
2023/03/15 01:18:24;;;;;;;3.20;2.08;;;;;;;9.11;42.01;95981.19;5124718;27;20516;-76
2023/03/15 01:20:50;;;;;;;3.05;1.85;;;;;;;9.09;41.99;95990.28;5129790;27;20418;-74
2023/03/15 01:23:15;;;;;;;4.00;1.90;;;;;;;9.07;41.84;95987.75;5124480;27;20043;-75
2023/03/15 01:25:41;;;;;;;3.13;1.98;;;;;;;9.03;41.65;95980.97;5098604;27;20027;-75
2023/03/15 01:28:06;;;;;;;4.85;2.00;;;;;;;9.16;41.54;95976.34;5105862;27;20493;-75
2023/03/15 01:30:32;;;;;;;6.25;2.30;;;;;;;9.21;41.63;95979.47;5146816;27;20054;-74
2023/03/15 01:32:58;;;;;;;3.90;2.00;;;;;;;9.14;41.98;95972.06;5115710;27;20055;-74
2023/03/15 01:35:23;;;;;;;4.25;2.15;;;;;;;9.05;42.32;95962.16;5099644;27;20023;-75
2023/03/15 01:37:50;;;;;;;3.83;1.45;;;;;;;9.06;42.15;95959.38;5133159;27;20026;-75
2023/03/15 01:40:16;;;;;;;4.25;2.20;;;;;;;9.07;42.18;95954.91;5115429;27;20027;-75
2023/03/15 01:43:03;;;;;;;4.68;2.30;;;;;;;9.03;42.53;95958.78;5132772;27;20088;-74
2023/03/15 01:46:07;;;;;;;5.80;2.13;;;;;;;9.03;42.38;95961.44;5126504;27;20409;-75
2023/03/15 01:48:43;;;;;;;4.75;2.17;;;;;;;8.95;42.82;95951.38;5117270;27;20022;-74
2023/03/15 01:51:34;;;;;;;4.68;2.17;;;;;;;8.96;42.52;95950.41;5115410;27;20062;-76
2023/03/15 01:54:08;;;;;;;5.03;1.95;;;;;;;9.02;42.63;95952.59;5122182;27;20409;-76
2023/03/15 01:56:34;;;;;;;4.55;2.15;;;;;;;9.05;42.43;95954.16;5122412;27;20497;-74
2023/03/15 01:59:02;;;;;;;2.65;1.98;;;;;;;8.95;43.02;95939.91;5114952;27;20019;-76
2023/03/15 02:01:28;;;;;;;3.35;1.88;;;;;;;8.86;43.98;95946.78;5133719;27;20039;-75
2023/03/15 02:04:03;;;;;;;9.25;2.33;;;;;;;8.86;43.32;95936.13;5128106;27;20019;-74
2023/03/15 02:06:33;;;;;;;3.63;2.05;;;;;;;8.91;43.14;95939.28;5116891;27;20079;-79
2023/03/15 02:09:02;;;;;;;4.60;2.50;;;;;;;8.87;42.92;95931.66;5115935;27;20030;-80
2023/03/15 02:11:28;;;;;;;3.85;2.10;;;;;;;8.97;42.85;95936.13;5099062;27;20038;-79
2023/03/15 02:13:54;;;;;;;4.47;2.30;;;;;;;8.97;43.35;95938.78;5120025;27;20027;-80
2023/03/15 02:16:21;;;;;;;3.92;2.80;;;;;;;8.95;44.33;95940.72;5122735;27;20080;-79
2023/03/15 02:18:47;;;;;;;2.38;1.80;;;;;;;8.83;43.55;95938.22;5104094;27;20484;-80
2023/03/15 02:21:28;;;;;;;7.57;2.58;;;;;;;8.89;44.11;95967.06;5121388;27;20062;-80
2023/03/15 02:24:32;;;;;;;4.43;2.63;;;;;;;9.02;43.50;95941.06;5114728;27;20035;-81
2023/03/15 02:26:58;;;;;;;5.35;2.42;;;;;;;8.95;43.80;95942.56;5105673;27;20818;-80
2023/03/15 02:29:25;;;;;;;4.07;2.35;;;;;;;8.93;44.72;95942.66;5097770;27;20031;-80
2023/03/15 02:31:52;;;;;;;4.88;2.30;;;;;;;8.88;45.58;95963.53;5106230;27;20023;-80
2023/03/15 02:34:17;;;;;;;6.38;3.25;;;;;;;8.69;46.95;95963.31;5097569;27;20019;-80
2023/03/15 02:36:43;;;;;;;7.07;3.38;;;;;;;8.56;46.99;95957.25;5130250;27;20053;-78
2023/03/15 02:39:17;;;;;;;8.48;3.38;;;;;;;8.37;48.21;95949.00;5111033;27;20105;-79
2023/03/15 02:41:47;;;;;;;6.43;3.20;;;;;;;8.29;47.49;95940.78;5114350;27;20051;-80
2023/03/15 02:44:26;;;;;;;7.57;3.17;;;;;;;8.26;48.57;95951.66;5100072;27;20419;-79
2023/03/15 02:47:12;;;;;;;4.45;2.47;;;;;;;8.08;46.98;95904.22;5133753;27;20084;-80
2023/03/15 02:49:40;;;;;;;5.95;3.13;;;;;;;8.18;48.01;95923.78;5098027;27;20371;-80
2023/03/15 02:52:06;;;;;;;6.40;3.22;;;;;;;8.18;47.62;95921.13;5127113;27;20405;-81
2023/03/15 02:54:33;;;;;;;5.55;3.08;;;;;;;8.19;46.97;95922.84;5103790;27;20031;-80
2023/03/15 02:57:00;;;;;;;6.57;2.78;;;;;;;8.31;46.66;95930.84;5132610;27;20102;-79
2023/03/15 02:59:25;;;;;;;6.35;3.03;;;;;;;8.33;47.24;95926.28;5098431;27;20031;-80
2023/03/15 03:01:51;;;;;;;4.07;2.47;;;;;;;8.42;45.91;95923.72;5097222;27;20117;-80
2023/03/15 03:04:17;;;;;;;6.25;2.20;;;;;;;8.66;44.92;95928.91;5098463;27;20054;-79
2023/03/15 03:06:43;;;;;;;5.28;2.13;;;;;;;8.84;43.91;95930.09;5148696;27;20113;-79
2023/03/15 03:09:09;;;;;;;5.57;2.60;;;;;;;8.86;45.02;95930.81;5112466;27;20370;-80
2023/03/15 03:11:35;;;;;;;3.97;2.45;;;;;;;8.86;44.53;95920.13;5113535;27;20066;-81
2023/03/15 03:14:00;;;;;;;4.13;1.90;;;;;;;8.85;44.72;95910.47;5148317;27;20062;-79
2023/03/15 03:16:26;;;;;;;8.68;2.30;;;;;;;8.87;44.68;95911.19;5116933;27;20031;-80
2023/03/15 03:19:07;;;;;;;3.67;1.90;;;;;;;8.78;44.37;95895.06;5121064;27;20076;-81
2023/03/15 03:24:54;;;;;;;4.15;2.25;;;;;;;8.64;45.26;95888.22;5129736;27;20073;-80
2023/03/15 03:27:20;;;;;;;6.05;2.20;;;;;;;8.75;45.55;95932.66;5113808;27;20062;-80
2023/03/15 03:29:45;;;;;;;4.10;2.25;;;;;;;8.70;46.14;95939.19;5096787;27;20027;-79
2023/03/15 03:32:11;;;;;;;3.80;2.40;;;;;;;8.69;46.04;95926.00;5113505;27;20027;-80
2023/03/15 03:34:37;;;;;;;8.48;2.35;;;;;;;8.56;45.95;95909.28;5113614;28;20144;-79
2023/03/15 03:37:02;;;;;;;4.90;2.25;;;;;;;8.75;45.24;95928.16;5120176;27;20094;-81
2023/03/15 03:39:28;;;;;;;3.90;2.00;;;;;;;8.85;44.33;95913.13;5113593;28;20429;-78
2023/03/15 03:41:54;;;;;;;2.90;1.58;;;;;;;9.04;43.27;95909.81;5096655;27;20023;-79
2023/03/15 03:44:19;;;;;;;2.90;1.60;;;;;;;8.97;43.49;95900.63;5113820;27;20565;-80
2023/03/15 03:46:45;;;;;;;3.08;2.00;;;;;;;9.05;43.85;95895.47;5100887;27;20026;-80
2023/03/15 03:49:10;;;;;;;4.18;2.05;;;;;;;9.02;44.39;95893.06;5117726;27;20082;-79
2023/03/15 03:51:36;;;;;;;3.30;2.00;;;;;;;8.80;45.41;95904.63;5104953;27;20031;-80
2023/03/15 03:54:02;;;;;;;3.90;2.17;;;;;;;8.76;45.34;95895.22;5119608;27;20031;-79
2023/03/15 03:56:29;;;;;;;3.00;2.15;;;;;;;8.79;45.32;95897.63;5144602;27;20046;-80
2023/03/15 03:58:54;;;;;;;3.85;2.25;;;;;;;8.77;44.78;95878.22;5128766;27;20074;-79
2023/03/15 04:01:21;;;;;;;3.92;2.30;;;;;;;8.79;44.58;95884.31;5111601;27;20494;-82
2023/03/15 04:03:47;;;;;;;4.45;2.38;;;;;;;8.90;44.52;95883.41;5103171;27;20029;-86
2023/03/15 04:06:13;;;;;;;4.38;2.38;;;;;;;8.92;44.38;95871.66;5120252;27;20026;-80
2023/03/15 04:08:40;;;;;;;7.05;3.35;;;;;;;8.92;44.99;95884.97;5120183;27;20095;-79
2023/03/15 04:11:05;;;;;;;4.35;2.28;;;;;;;8.81;46.02;95882.34;5134134;27;20060;-80
2023/03/15 04:13:31;;;;;;;3.42;2.10;;;;;;;8.72;45.22;95869.78;5134740;27;20494;-81
2023/03/15 04:15:57;;;;;;;5.60;2.10;;;;;;;8.74;45.17;95873.16;5143890;27;20019;-80
2023/03/15 04:18:23;;;;;;;5.45;2.72;;;;;;;8.71;45.16;95873.41;5137043;27;20045;-79
2023/03/15 04:20:53;;;;;;;7.63;3.72;;;;;;;8.64;45.29;95864.25;5108565;27;20023;-80
2023/03/15 04:23:20;;;;;;;18.15;6.43;;;;;;;8.67;45.39;95887.97;5111427;27;20130;-81
2023/03/15 04:25:49;;;;;;;13.05;3.42;;;;;;;8.62;45.68;95879.47;5154068;27;20015;-80
2023/03/15 04:28:16;;;;;;;15.70;4.43;;;;;;;8.59;45.86;95887.72;5136998;27;20022;-81
2023/03/15 04:30:41;;;;;;;13.38;4.85;;;;;;;8.56;45.59;95887.97;5108907;27;20031;-80
2023/03/15 04:33:07;;;;;;;8.60;3.75;;;;;;;8.61;45.82;95893.81;5122619;27;20072;-80
2023/03/15 04:35:35;;;;;;;23.98;8.32;;;;;;;8.67;45.87;95893.31;5116003;27;20426;-81
2023/03/15 04:38:01;;;;;;;22.80;6.82;;;;;;;8.69;45.45;95894.88;5145574;27;20109;-81
2023/03/15 04:40:26;;;;;;;27.48;8.40;;;;;;;8.61;46.11;95885.81;5150582;27;20549;-84
2023/03/15 04:42:55;;;;;;;39.33;13.63;;;;;;;8.65;45.85;95895.22;5101668;27;20031;-83
2023/03/15 04:45:22;;;;;;;11.68;3.83;;;;;;;8.66;45.57;95886.28;5109612;27;20030;-75
2023/03/15 04:47:49;;;;;;;12.70;4.78;;;;;;;8.79;45.10;95894.13;5131111;27;20026;-80
2023/03/15 04:50:15;;;;;;;4.90;2.45;;;;;;;9.01;44.54;95889.56;5127054;27;20012;-81
2023/03/15 04:52:41;;;;;;;9.68;3.20;;;;;;;9.10;44.76;95887.97;5105401;27;20076;-79
2023/03/15 04:55:07;;;;;;;3.80;2.25;;;;;;;9.19;44.60;95890.72;5107335;27;20535;-81
2023/03/15 04:57:32;;;;;;;10.88;3.40;;;;;;;9.12;45.70;95899.34;5102342;27;20061;-81
2023/03/15 04:59:58;;;;;;;8.85;3.65;;;;;;;8.68;48.33;95905.63;5128529;27;20019;-80
2023/03/15 05:02:23;;;;;;;11.98;4.40;;;;;;;8.57;48.96;95913.66;5127993;27;20031;-80
2023/03/15 05:04:49;;;;;;;5.43;3.15;;;;;;;8.25;49.87;95892.22;5153706;27;20117;-82
2023/03/15 05:07:14;;;;;;;14.95;4.43;;;;;;;8.05;51.53;95906.25;5124963;27;20027;-81
2023/03/15 05:09:40;;;;;;;28.23;11.20;;;;;;;8.07;51.83;95910.50;5106591;27;20042;-80
2023/03/15 05:12:06;;;;;;;16.77;6.30;;;;;;;7.94;53.18;95915.06;5117869;27;20023;-79
2023/03/15 05:14:32;;;;;;;8.52;4.25;;;;;;;7.93;52.51;95913.41;5099366;27;20101;-79
2023/03/15 05:16:58;;;;;;;11.43;4.07;;;;;;;7.85;53.57;95914.94;5141615;27;20019;-80
2023/03/15 05:19:27;;;;;;;14.05;3.83;;;;;;;7.91;52.59;95915.31;5120129;27;20035;-83
2023/03/15 05:21:53;;;;;;;18.08;6.70;;;;;;;7.98;53.85;95918.34;5133009;27;21045;-81
2023/03/15 05:24:22;;;;;;;10.30;4.20;;;;;;;8.05;53.49;95922.22;5101671;27;20043;-81
2023/03/15 05:26:48;;;;;;;9.50;3.83;;;;;;;8.16;51.43;95916.91;5123132;27;20501;-80
2023/03/15 05:29:14;;;;;;;8.75;5.40;;;;;;;8.33;53.09;95927.13;5113873;27;20019;-81
2023/03/15 05:31:39;;;;;;;20.30;9.27;;;;;;;8.40;53.82;95928.31;5101766;27;20083;-80
2023/03/15 05:34:06;;;;;;;34.33;9.65;;;;;;;8.80;53.51;95943.81;5106508;27;20135;-81
2023/03/15 05:36:33;;;;;;;73.97;34.97;;;;;;;10.00;52.42;95966.63;5150370;27;20023;-82
2023/03/15 05:38:58;;;;;;;15.90;6.43;;;;;;;11.44;47.32;95982.31;5132755;27;20023;-80
2023/03/15 05:41:24;;;;;;;16.48;6.97;;;;;;;12.52;44.63;95982.97;5101137;27;20050;-82
2023/03/15 05:43:50;;;;;;;44.90;14.15;;;;;;;13.59;42.76;95998.50;5120095;27;20398;-82
2023/03/15 05:46:16;;;;;;;17.45;8.52;;;;;;;14.39;41.28;95993.06;5136988;27;20118;-80
2023/03/15 05:48:42;;;;;;;35.70;13.50;;;;;;;15.01;40.25;96007.28;5150047;27;20485;-80
2023/03/15 05:51:07;;;;;;;30.65;9.88;;;;;;;14.95;39.57;95987.19;5107082;27;20035;-83
2023/03/15 05:53:33;;;;;;;20.20;9.10;;;;;;;15.32;39.63;95992.25;5133049;27;20035;-80
2023/03/15 05:55:58;;;;;;;23.65;8.52;;;;;;;15.84;38.40;96000.22;5150126;27;20023;-82
2023/03/15 05:58:24;;;;;;;12.35;4.88;;;;;;;16.59;35.62;95983.75;5098710;27;20099;-82
2023/03/15 06:00:50;;;;;;;4.20;2.78;;;;;;;15.28;34.41;95907.41;5129152;27;20027;-83
2023/03/15 06:03:15;;;;;;;5.43;3.47;;;;;;;15.41;34.87;95925.78;5115275;27;20039;-82
2023/03/15 06:05:41;;;;;;;4.97;2.10;;;;;;;14.99;35.16;95910.50;5118885;27;20061;-82
2023/03/15 06:08:07;;;;;;;4.72;2.50;;;;;;;15.12;34.97;95923.50;5132383;27;20031;-80
2023/03/15 06:10:32;;;;;;;7.05;3.75;;;;;;;15.09;35.39;95929.22;5115509;27;20056;-82
2023/03/15 06:12:58;;;;;;;5.55;2.83;;;;;;;15.32;34.49;95926.78;5112301;27;20427;-81
2023/03/15 06:15:24;;;;;;;8.88;4.43;;;;;;;15.70;35.28;95934.28;5106758;27;20471;-81
2023/03/15 06:17:50;;;;;;;5.93;2.40;;;;;;;15.78;33.77;95920.81;5110778;27;20031;-81
2023/03/15 06:20:16;;;;;;;7.05;2.75;;;;;;;15.85;34.04;95911.06;5131399;27;20035;-82
2023/03/15 06:22:41;;;;;;;8.00;3.63;;;;;;;16.32;33.67;95923.88;5109635;27;20501;-82
2023/03/15 06:25:08;;;;;;;15.13;7.88;;;;;;;16.09;36.39;95942.59;5116449;27;20082;-81
2023/03/15 06:27:34;;;;;;;7.10;3.42;;;;;;;15.03;34.95;95892.16;5115149;27;20524;-81
2023/03/15 06:29:59;;;;;;;6.88;3.42;;;;;;;14.29;36.16;95884.69;5114406;27;20162;-80
2023/03/15 06:32:25;;;;;;;13.60;5.72;;;;;;;13.88;38.47;95890.78;5106405;27;20037;-82
2023/03/15 06:34:51;;;;;;;4.95;2.67;;;;;;;13.07;37.53;95854.25;5111000;27;20099;-80
2023/03/15 06:37:16;;;;;;;4.20;2.33;;;;;;;12.71;38.52;95842.59;5114534;27;20475;-81
2023/03/15 06:39:43;;;;;;;6.50;3.08;;;;;;;12.58;38.89;95861.72;5106082;27;20038;-81
2023/03/15 06:42:11;;;;;;;6.88;3.38;;;;;;;12.84;39.10;95876.13;5097402;27;20031;-81
2023/03/15 06:44:38;;;;;;;6.97;3.42;;;;;;;13.12;38.99;95885.03;5149091;27;20062;-82
2023/03/15 06:47:03;;;;;;;6.43;3.28;;;;;;;13.64;37.69;95901.31;5117325;27;20035;-80
2023/03/15 06:49:29;;;;;;;6.45;3.20;;;;;;;13.92;37.65;95890.31;5114841;27;20091;-82
2023/03/15 06:51:55;;;;;;;8.25;3.90;;;;;;;13.71;37.69;95891.66;5114085;27;20470;-82
2023/03/15 06:54:22;;;;;;;3.60;2.30;;;;;;;13.52;37.53;95858.59;5148471;27;20118;-81
2023/03/15 06:56:47;;;;;;;5.82;2.95;;;;;;;13.94;37.69;95891.00;5097085;27;20026;-80
2023/03/15 06:59:12;;;;;;;12.40;3.88;;;;;;;14.82;36.39;95919.50;5114090;27;20084;-80
2023/03/15 07:01:38;;;;;;;7.97;3.20;;;;;;;15.26;35.49;95936.34;5114544;27;20027;-80
2023/03/15 07:04:04;;;;;;;6.60;3.08;;;;;;;15.32;36.07;95922.22;5113674;27;20023;-80
2023/03/15 07:06:29;;;;;;;6.95;3.80;;;;;;;15.62;35.54;95913.59;5122327;27;20031;-81
2023/03/15 07:08:55;;;;;;;6.75;2.75;;;;;;;15.13;35.11;95890.19;5139696;27;20023;-80
2023/03/15 07:11:20;;;;;;;6.38;2.40;;;;;;;15.01;35.11;95894.19;5105541;27;20039;-80
2023/03/15 07:13:46;;;;;;;3.88;2.17;;;;;;;14.42;36.03;95860.94;5137743;27;20054;-80
2023/03/15 07:16:12;;;;;;;4.10;1.80;;;;;;;13.74;36.74;95859.94;5097010;27;20015;-80
2023/03/15 07:18:37;;;;;;;11.77;2.30;;;;;;;13.95;36.87;95855.06;5097905;27;20038;-80
2023/03/15 07:21:04;;;;;;;5.75;2.78;;;;;;;13.84;36.99;95870.59;5144873;27;20390;-81
2023/03/15 07:23:30;;;;;;;3.30;1.92;;;;;;;13.87;36.85;95865.72;5130221;27;20084;-81
2023/03/15 07:25:55;;;;;;;6.45;2.28;;;;;;;14.57;36.13;95891.63;5105369;27;20538;-81
2023/03/15 07:28:22;;;;;;;4.32;2.45;;;;;;;14.94;35.69;95904.75;5131907;27;20440;-81
2023/03/15 07:31:10;;;;;;;3.42;2.15;;;;;;;15.30;35.42;95888.38;5148512;27;20042;-81
2023/03/15 07:33:36;;;;;;;4.72;2.40;;;;;;;15.13;35.55;95888.31;5139639;27;20026;-81
2023/03/15 07:36:03;;;;;;;6.25;3.50;;;;;;;15.26;35.68;95908.56;5148308;27;20022;-81
2023/03/15 07:38:29;;;;;;;7.82;2.88;;;;;;;16.15;34.45;95909.56;5114860;27;20031;-81
2023/03/15 07:40:54;;;;;;;7.40;2.92;;;;;;;16.68;33.57;95909.84;5105125;27;20031;-75
2023/03/15 07:43:20;;;;;;;6.68;3.03;;;;;;;17.33;33.25;95907.75;5096424;28;20034;-80
2023/03/15 07:45:46;;;;;;;5.32;3.25;;;;;;;16.54;33.43;95890.78;5096701;27;20023;-79
2023/03/15 07:48:11;;;;;;;4.13;2.70;;;;;;;15.20;35.31;95857.03;5101310;27;20112;-80
2023/03/15 07:50:37;;;;;;;5.30;2.83;;;;;;;14.90;36.90;95881.00;5130595;27;20027;-80
2023/03/15 07:53:03;;;;;;;5.05;2.72;;;;;;;14.85;37.19;95888.72;5096899;28;20570;-78
2023/03/15 07:55:31;;;;;;;6.85;2.78;;;;;;;15.48;35.78;95898.03;5096134;28;20157;-81
2023/03/15 07:57:56;;;;;;;2.88;1.92;;;;;;;16.27;34.78;95910.91;5104995;28;20476;-80
2023/03/15 08:00:22;;;;;;;6.07;2.30;;;;;;;16.13;33.98;95877.34;5104730;28;20062;-80
2023/03/15 08:02:48;;;;;;;4.00;2.80;;;;;;;16.20;33.86;95885.63;5105045;28;20033;-80
2023/03/15 08:05:13;;;;;;;3.30;2.03;;;;;;;15.87;33.82;95856.97;5122105;28;20471;-79
2023/03/15 08:07:39;;;;;;;3.08;1.70;;;;;;;15.67;34.38;95838.44;5121162;28;20071;-81
2023/03/15 08:10:05;;;;;;;4.15;2.60;;;;;;;15.94;34.29;95872.28;5113548;28;20110;-80
2023/03/15 08:12:32;;;;;;;3.22;1.90;;;;;;;15.35;34.96;95840.25;5124155;28;20180;-80
2023/03/15 08:14:58;;;;;;;7.25;2.88;;;;;;;15.29;35.12;95849.81;5103395;28;20041;-80
2023/03/15 08:17:24;;;;;;;12.57;2.55;;;;;;;16.02;34.46;95884.94;5127762;28;20072;-79
2023/03/15 08:19:49;;;;;;;5.65;2.28;;;;;;;16.22;33.94;95880.88;5096442;28;20027;-80
2023/03/15 08:22:15;;;;;;;3.55;2.50;;;;;;;16.55;33.38;95877.13;5100657;28;20122;-80
2023/03/15 08:24:41;;;;;;;4.63;1.90;;;;;;;16.89;32.85;95878.75;5138711;27;20463;-80
2023/03/15 08:27:06;;;;;;;7.13;2.70;;;;;;;16.82;33.26;95875.03;5107641;28;20068;-80
2023/03/15 08:29:32;;;;;;;5.18;3.05;;;;;;;16.95;33.01;95873.44;5113266;28;20031;-79
2023/03/15 08:31:58;;;;;;;5.35;2.63;;;;;;;17.19;32.98;95859.00;5104062;28;20027;-79
2023/03/15 08:34:24;;;;;;;3.53;2.38;;;;;;;16.34;33.54;95841.72;5126499;27;20027;-80
2023/03/15 08:36:50;;;;;;;4.75;2.72;;;;;;;15.37;34.84;95804.03;5131025;28;20015;-81
2023/03/15 08:39:16;;;;;;;4.90;1.63;;;;;;;15.43;34.74;95816.84;5120334;27;20494;-81
2023/03/15 08:41:42;;;;;;;3.85;1.88;;;;;;;15.95;34.38;95828.16;5116852;27;20075;-81
2023/03/15 08:44:08;;;;;;;6.45;2.92;;;;;;;16.46;33.99;95843.03;5135812;27;20114;-79
2023/03/15 08:46:34;;;;;;;4.97;2.53;;;;;;;15.77;34.93;95788.91;5133424;27;20376;-79
2023/03/15 08:48:59;;;;;;;6.50;2.83;;;;;;;16.13;35.18;95830.66;5132907;27;20096;-80
2023/03/15 08:51:25;;;;;;;3.38;1.98;;;;;;;17.18;33.47;95847.34;5112707;27;20053;-80
2023/03/15 08:53:51;;;;;;;5.10;3.10;;;;;;;17.19;33.48;95845.50;5099460;27;20026;-79
2023/03/15 08:56:17;;;;;;;6.75;2.50;;;;;;;17.13;33.47;95838.94;5151608;27;20448;-79
2023/03/15 08:58:43;;;;;;;2.65;1.90;;;;;;;17.44;33.14;95841.63;5116452;27;20432;-80
2023/03/15 09:01:12;;;;;;;4.75;2.50;;;;;;;18.32;32.41;95867.16;5099544;27;20114;-80
2023/03/15 09:03:37;;;;;;;4.80;2.50;;;;;;;18.05;32.31;95850.66;5099586;27;20031;-79
2023/03/15 09:06:03;;;;;;;4.28;2.80;;;;;;;17.73;33.40;95851.75;5099841;27;20043;-80
2023/03/15 09:08:29;;;;;;;5.18;2.50;;;;;;;17.99;32.86;95862.22;5116097;27;20027;-80
2023/03/15 09:10:55;;;;;;;6.28;2.47;;;;;;;17.82;32.82;95856.94;5120667;27;20011;-80
2023/03/15 09:13:21;;;;;;;3.92;2.03;;;;;;;17.30;33.18;95834.28;5108264;27;20071;-79
2023/03/15 09:15:51;;;;;;;6.88;2.90;;;;;;;17.49;32.96;95832.97;5132068;27;20023;-80
2023/03/15 09:18:17;;;;;;;3.85;2.65;;;;;;;18.02;32.51;95851.88;5114646;27;20065;-81
2023/03/15 09:20:43;;;;;;;2.63;1.80;;;;;;;18.20;31.80;95844.25;5120659;27;20110;-80
2023/03/15 09:23:08;;;;;;;7.68;2.55;;;;;;;17.45;32.82;95824.38;5110455;27;20490;-80
2023/03/15 09:25:36;;;;;;;4.05;2.05;;;;;;;17.46;32.96;95822.53;5108547;27;20055;-80
2023/03/15 09:28:02;;;;;;;3.33;1.92;;;;;;;17.68;32.62;95817.16;5159544;27;20019;-81
2023/03/15 09:30:28;;;;;;;3.92;2.38;;;;;;;17.66;32.58;95831.84;5124670;27;20015;-80
2023/03/15 09:32:54;;;;;;;4.70;2.70;;;;;;;18.25;32.22;95844.53;5106515;27;20093;-80
2023/03/15 09:35:20;;;;;;;3.40;2.50;;;;;;;19.37;30.82;95857.81;5139615;27;20031;-80
2023/03/15 09:37:47;;;;;;;6.32;2.33;;;;;;;19.75;30.63;95863.88;5126500;27;20079;-79
2023/03/15 09:40:16;;;;;;;7.05;3.33;;;;;;;19.26;30.89;95846.59;5121975;27;20023;-80
2023/03/15 09:42:53;;;;;;;5.53;2.70;;;;;;;18.00;31.99;95796.22;5106103;27;20054;-79
2023/03/15 09:45:45;;;;;;;3.40;2.05;;;;;;;17.82;32.44;95812.78;5103060;27;20113;-79
2023/03/15 09:48:16;;;;;;;5.20;2.30;;;;;;;17.55;32.64;95797.97;5134892;27;20467;-81
2023/03/15 09:50:53;;;;;;;8.13;2.90;;;;;;;17.29;33.33;95794.75;5131819;27;20126;-81
2023/03/15 09:53:31;;;;;;;7.13;3.22;;;;;;;17.39;33.46;95808.03;5126700;27;20501;-80
2023/03/15 09:55:57;;;;;;;4.68;2.50;;;;;;;17.22;33.60;95813.56;5144541;27;20099;-79
2023/03/15 09:58:25;;;;;;;4.03;2.10;;;;;;;17.02;34.05;95806.06;5136566;27;20019;-80
2023/03/15 10:00:59;;;;;;;5.43;2.65;;;;;;;16.88;34.19;95807.69;5099016;27;20023;-79
2023/03/15 10:03:45;;;;;;;4.90;2.17;;;;;;;16.84;34.32;95810.88;5099640;27;20505;-80
2023/03/15 10:06:33;;;;;;;5.38;2.67;;;;;;;16.67;34.56;95802.03;5126475;27;20042;-80
2023/03/15 10:09:02;;;;;;;10.88;4.00;;;;;;;16.78;34.76;95801.63;5102936;27;20029;-80
2023/03/15 10:11:44;;;;;;;7.60;2.85;;;;;;;17.62;33.65;95839.50;5122164;27;20110;-79
2023/03/15 10:14:40;;;;;;;13.05;3.17;;;;;;;18.17;33.03;95866.28;5149801;27;20104;-79
2023/03/15 10:17:11;;;;;;;4.55;2.90;;;;;;;17.62;33.27;95819.75;5130172;27;20058;-79
2023/03/15 10:19:50;;;;;;;4.45;2.60;;;;;;;17.21;33.57;95813.72;5097401;27;20035;-81
2023/03/15 10:22:34;;;;;;;3.35;2.22;;;;;;;17.63;33.65;95832.22;5139685;27;20086;-81
2023/03/15 10:25:03;;;;;;;6.70;2.75;;;;;;;19.31;32.09;95882.13;5095333;27;20047;-80
2023/03/15 10:27:46;;;;;;;4.38;2.58;;;;;;;18.95;31.98;95861.22;5130413;27;20199;-80
2023/03/15 10:30:16;;;;;;;4.35;2.88;;;;;;;17.65;32.89;95827.50;5099079;27;20027;-80
2023/03/15 10:32:44;;;;;;;5.43;3.08;;;;;;;17.29;34.16;95810.97;5097811;27;20031;-80
2023/03/15 10:35:15;;;;;;;4.93;2.65;;;;;;;16.86;34.85;95809.69;5113198;27;20019;-80
2023/03/15 10:37:41;;;;;;;6.28;2.70;;;;;;;17.22;33.99;95820.81;5114395;27;20023;-80
2023/03/15 10:40:14;;;;;;;5.53;2.97;;;;;;;17.89;33.45;95835.41;5114620;27;20033;-80
2023/03/15 10:42:44;;;;;;;6.78;2.40;;;;;;;18.66;32.35;95844.16;5111364;27;20049;-80
2023/03/15 10:45:22;;;;;;;7.55;2.80;;;;;;;18.75;32.20;95837.59;5111889;27;20023;-79
2023/03/15 10:47:48;;;;;;;5.07;3.17;;;;;;;18.39;32.79;95815.81;5124823;27;20470;-80
2023/03/15 10:50:25;;;;;;;5.80;3.22;;;;;;;18.61;32.72;95824.91;5111118;27;20008;-80
2023/03/15 10:52:54;;;;;;;11.73;3.05;;;;;;;18.76;32.41;95820.34;5147571;27;20390;-80
2023/03/15 10:55:35;;;;;;;4.07;2.30;;;;;;;19.26;31.48;95816.78;5097468;27;20015;-80
2023/03/15 10:58:30;;;;;;;3.78;2.30;;;;;;;19.74;31.30;95823.41;5115998;27;20027;-80
2023/03/15 11:01:02;;;;;;;4.70;2.45;;;;;;;20.00;30.77;95821.75;5089844;27;20034;-80
2023/03/15 11:03:28;;;;;;;4.47;2.38;;;;;;;20.17;30.61;95833.19;5112900;27;20084;-80
2023/03/15 11:05:56;;;;;;;4.65;2.30;;;;;;;20.24;30.69;95825.09;5148313;27;20456;-80
2023/03/15 11:08:24;;;;;;;5.10;2.50;;;;;;;20.61;30.39;95849.22;5116918;27;20034;-80
2023/03/15 11:10:58;;;;;;;5.35;3.00;;;;;;;20.57;29.91;95837.09;5112745;27;20019;-81
2023/03/15 11:13:28;;;;;;;3.88;2.47;;;;;;;19.80;30.88;95819.91;5109943;27;20830;-81
2023/03/15 11:16:03;;;;;;;6.95;2.60;;;;;;;19.16;31.74;95800.84;5122508;27;20011;-81
2023/03/15 11:18:33;;;;;;;3.47;2.30;;;;;;;18.49;32.31;95783.06;5128732;27;20037;-80
2023/03/15 11:21:01;;;;;;;3.67;2.33;;;;;;;17.92;33.06;95777.38;5110124;27;20033;-79
2023/03/15 11:23:30;;;;;;;6.05;2.53;;;;;;;17.57;33.46;95766.19;5148530;27;20063;-81
2023/03/15 11:25:56;;;;;;;4.63;2.30;;;;;;;17.69;33.30;95770.13;5148076;27;20027;-80
2023/03/15 11:28:26;;;;;;;6.88;3.17;;;;;;;17.66;33.59;95775.91;5105564;27;22310;-80
2023/03/15 11:30:51;;;;;;;6.00;3.08;;;;;;;17.60;34.03;95786.59;5122049;27;20035;-81
2023/03/15 11:33:26;;;;;;;6.97;3.88;;;;;;;17.74;34.12;95789.38;5116287;27;20027;-80
2023/03/15 11:35:54;;;;;;;8.95;4.10;;;;;;;17.92;34.20;95789.06;5132027;27;20079;-80
2023/03/15 11:38:32;;;;;;;6.40;3.20;;;;;;;17.96;34.00;95789.53;5126272;27;20030;-80
2023/03/15 11:40:58;;;;;;;6.57;4.10;;;;;;;17.96;33.94;95776.00;5130369;27;20034;-80
2023/03/15 11:44:02;;;;;;;10.65;5.00;;;;;;;17.90;34.08;95776.75;5122853;27;20023;-80